Time;durP1;ratioP1;P1;durP2;ratioP2;P2;SDS_P1;SDS_P2;PMS_P1;PMS_P2;Temp;Humidity;BMP_temperature;BMP_pressure;BME280_temperature;BME280_humidity;BME280_pressure;Samples;Min_cycle;Max_cycle;Signal;HPM_P1;HPM_P2
2023/05/06 00:01:14;;;;;;;5.88;4.15;;;14.10;99.90;;;;;;4844935;29;20045;-90
2023/05/06 00:03:40;;;;;;;8.90;4.15;;;14.10;99.90;;;;;;4860212;29;20113;-89
2023/05/06 00:06:07;;;;;;;6.55;4.13;;;14.10;99.90;;;;;;4875868;29;20124;-90
2023/05/06 00:08:36;;;;;;;8.05;4.70;;;14.10;99.90;;;;;;4861733;29;20057;-89
2023/05/06 00:11:01;;;;;;;6.22;4.50;;;14.00;99.90;;;;;;4863578;29;20199;-89
2023/05/06 00:13:27;;;;;;;8.23;4.80;;;14.00;99.90;;;;;;4860685;29;20159;-90
2023/05/06 00:15:53;;;;;;;7.00;5.35;;;14.00;99.90;;;;;;4860056;29;20068;-90
2023/05/06 00:18:21;;;;;;;6.35;4.93;;;14.00;99.90;;;;;;4878651;29;20059;-91
2023/05/06 00:20:46;;;;;;;7.82;5.63;;;14.00;99.90;;;;;;4863782;29;20056;-92
2023/05/06 00:23:12;;;;;;;7.00;4.85;;;13.90;99.90;;;;;;4871117;29;20053;-91
2023/05/06 00:25:40;;;;;;;6.93;5.10;;;13.80;99.90;;;;;;4875918;29;20049;-91
2023/05/06 00:28:08;;;;;;;7.10;5.15;;;13.80;99.90;;;;;;4861733;29;20050;-90
2023/05/06 00:30:34;;;;;;;7.68;5.40;;;13.80;99.90;;;;;;4860578;29;20094;-90
2023/05/06 00:33:00;;;;;;;7.53;5.00;;;13.80;99.90;;;;;;4862903;29;20047;-90
2023/05/06 00:35:25;;;;;;;7.15;5.65;;;13.80;99.90;;;;;;4863355;29;20057;-90
2023/05/06 00:38:12;;;;;;;7.32;4.90;;;13.80;99.90;;;;;;4859459;29;20109;-89
2023/05/06 00:40:39;;;;;;;9.13;5.13;;;13.70;99.90;;;;;;4862817;29;20139;-91
2023/05/06 00:43:05;;;;;;;8.77;4.90;;;13.70;99.90;;;;;;4876501;29;20086;-90
2023/05/06 00:45:31;;;;;;;9.35;5.05;;;13.70;99.90;;;;;;4866328;29;20045;-89
2023/05/06 00:47:57;;;;;;;10.70;5.28;;;13.60;99.90;;;;;;4863452;29;20076;-92
2023/05/06 00:50:24;;;;;;;9.35;5.00;;;13.60;99.90;;;;;;4863654;29;20089;-90
2023/05/06 00:52:50;;;;;;;11.75;5.13;;;13.60;99.90;;;;;;4877930;23;20122;-92
2023/05/06 00:55:16;;;;;;;9.40;5.18;;;13.50;99.90;;;;;;4882508;29;20112;-91
2023/05/06 00:57:42;;;;;;;7.47;4.80;;;13.50;99.90;;;;;;4882372;29;20124;-90
2023/05/06 01:00:10;;;;;;;8.77;5.07;;;13.40;99.90;;;;;;4863391;29;20095;-90
2023/05/06 01:02:36;;;;;;;7.22;4.70;;;13.40;99.90;;;;;;4881146;29;20049;-89
2023/05/06 01:05:02;;;;;;;9.45;4.78;;;13.40;99.90;;;;;;4883174;29;20055;-90
2023/05/06 01:07:39;;;;;;;9.32;5.13;;;13.40;99.90;;;;;;4866724;29;20046;-90
2023/05/06 01:10:31;;;;;;;7.82;4.82;;;13.30;99.90;;;;;;4865018;29;20053;-89
2023/05/06 01:13:22;;;;;;;6.57;4.70;;;13.30;99.90;;;;;;4867320;29;20482;-89
2023/05/06 01:15:52;;;;;;;9.25;5.47;;;13.20;99.90;;;;;;4868055;29;20140;-90
2023/05/06 01:18:21;;;;;;;7.75;4.63;;;13.20;99.90;;;;;;4882035;29;20116;-92
2023/05/06 01:20:52;;;;;;;7.65;5.20;;;13.20;99.90;;;;;;4880079;29;20128;-89
2023/05/06 01:23:18;;;;;;;7.10;5.35;;;13.20;99.90;;;;;;4878199;29;20057;-90
2023/05/06 01:25:44;;;;;;;7.40;4.93;;;13.10;99.90;;;;;;4864474;29;20085;-90
2023/05/06 01:28:11;;;;;;;7.10;5.10;;;13.10;99.90;;;;;;4863532;29;20647;-90
2023/05/06 01:30:50;;;;;;;7.28;5.35;;;13.10;99.90;;;;;;4908197;29;20487;-91
2023/05/06 01:33:38;;;;;;;9.10;5.10;;;13.10;99.90;;;;;;4863892;29;20058;-91
2023/05/06 01:36:11;;;;;;;9.43;5.47;;;13.10;99.90;;;;;;4863348;29;20053;-90
2023/05/06 01:38:43;;;;;;;;;;;13.10;99.90;;;;;;4864164;29;20029;-90
2023/05/06 01:41:19;;;;;;;9.40;5.45;;;13.00;99.90;;;;;;4864851;29;20342;-89
2023/05/06 01:43:47;;;;;;;9.68;5.07;;;13.00;99.90;;;;;;4863309;29;20054;-88
2023/05/06 01:46:23;;;;;;;9.60;5.22;;;13.00;99.90;;;;;;4873135;29;20041;-89
2023/05/06 01:48:53;;;;;;;7.85;5.25;;;13.00;99.90;;;;;;4879349;29;20490;-89
2023/05/06 01:51:22;;;;;;;8.70;5.55;;;12.90;99.90;;;;;;4881909;29;20092;-89
2023/05/06 01:53:48;;;;;;;8.20;5.13;;;13.00;99.90;;;;;;4880580;29;20051;-91
2023/05/06 01:56:15;;;;;;;9.18;5.03;;;12.90;99.90;;;;;;4877489;29;20045;-89
2023/05/06 01:58:40;;;;;;;7.85;5.35;;;12.90;99.90;;;;;;4878869;29;20052;-89
2023/05/06 02:01:06;;;;;;;7.05;4.93;;;12.90;99.90;;;;;;4874465;29;20397;-91
2023/05/06 02:03:32;;;;;;;8.05;5.03;;;12.80;99.90;;;;;;4882481;29;20049;-91
2023/05/06 02:05:57;;;;;;;8.00;5.25;;;12.80;99.90;;;;;;4878125;29;20041;-90
2023/05/06 02:08:23;;;;;;;6.97;5.20;;;12.80;99.90;;;;;;4863425;29;20053;-90
2023/05/06 02:10:49;;;;;;;6.90;5.30;;;12.80;99.90;;;;;;4861971;29;20053;-90
2023/05/06 02:13:17;;;;;;;8.38;5.32;;;12.80;99.90;;;;;;4863227;29;20109;-89
2023/05/06 02:15:42;;;;;;;7.38;5.00;;;12.70;99.90;;;;;;4862953;29;20052;-89
2023/05/06 02:18:08;;;;;;;7.80;5.40;;;12.70;99.90;;;;;;4862618;29;20042;-90
2023/05/06 02:20:34;;;;;;;11.85;5.30;;;12.70;99.90;;;;;;4862996;29;20402;-90
2023/05/06 02:22:59;;;;;;;8.40;5.50;;;12.70;99.90;;;;;;4862355;29;20156;-89
2023/05/06 02:25:25;;;;;;;7.82;5.07;;;12.60;99.90;;;;;;4864702;29;20037;-89
2023/05/06 02:27:51;;;;;;;7.15;5.25;;;12.60;99.90;;;;;;4863067;29;20057;-90
2023/05/06 02:30:16;;;;;;;9.13;6.00;;;12.60;99.90;;;;;;4871517;29;20038;-90
2023/05/06 02:32:42;;;;;;;7.43;5.57;;;12.50;99.90;;;;;;4878552;29;20049;-89
2023/05/06 02:35:08;;;;;;;9.07;5.57;;;12.50;99.90;;;;;;4861981;29;20049;-91
2023/05/06 02:37:34;;;;;;;7.63;5.72;;;12.50;99.90;;;;;;4862068;29;20045;-89
2023/05/06 02:39:59;;;;;;;7.45;5.40;;;12.50;99.90;;;;;;4870584;29;20100;-90
2023/05/06 02:42:25;;;;;;;7.50;5.38;;;12.50;99.90;;;;;;4868801;29;20403;-89
2023/05/06 02:44:53;;;;;;;7.43;5.78;;;12.50;99.90;;;;;;4866813;29;20489;-90
2023/05/06 02:47:19;;;;;;;7.93;5.22;;;12.50;99.90;;;;;;4880539;29;20060;-90
2023/05/06 02:49:44;;;;;;;7.88;5.47;;;12.40;99.90;;;;;;4878231;29;20494;-90
2023/05/06 02:52:10;;;;;;;8.13;5.22;;;12.40;99.90;;;;;;4880491;29;20053;-91
2023/05/06 02:54:36;;;;;;;8.57;5.85;;;12.40;99.90;;;;;;4880979;29;20044;-91
2023/05/06 02:57:01;;;;;;;8.82;5.63;;;12.40;99.90;;;;;;4869171;29;20042;-91
2023/05/06 02:59:29;;;;;;;9.40;5.80;;;12.40;99.90;;;;;;4861911;29;20057;-90
2023/05/06 03:01:55;;;;;;;10.02;5.50;;;12.30;99.90;;;;;;4862940;29;20153;-90
2023/05/06 03:04:21;;;;;;;7.80;5.53;;;12.30;99.90;;;;;;4861372;29;20774;-89
2023/05/06 03:06:47;;;;;;;7.53;5.18;;;12.30;99.90;;;;;;4860582;29;20042;-91
2023/05/06 03:09:14;;;;;;;6.93;5.25;;;12.30;99.90;;;;;;4862018;29;20055;-91
2023/05/06 03:11:39;;;;;;;6.60;5.30;;;12.30;99.90;;;;;;4866859;29;20107;-91
2023/05/06 03:14:05;;;;;;;8.07;5.30;;;12.30;99.90;;;;;;4862582;29;20499;-91
2023/05/06 03:16:31;;;;;;;9.20;5.60;;;12.30;99.90;;;;;;4870608;29;20113;-90
2023/05/06 03:18:57;;;;;;;8.00;5.05;;;12.30;99.90;;;;;;4862121;29;20085;-90
2023/05/06 03:21:23;;;;;;;7.40;5.20;;;12.20;99.90;;;;;;4879533;29;20048;-91
2023/05/06 03:23:48;;;;;;;7.82;5.20;;;12.20;99.90;;;;;;4879454;29;20048;-89
2023/05/06 03:26:14;;;;;;;7.70;5.22;;;12.10;99.90;;;;;;4869351;29;20520;-89
2023/05/06 03:28:43;;;;;;;8.90;5.38;;;12.10;99.90;;;;;;4860637;29;20077;-89
2023/05/06 03:31:09;;;;;;;8.20;5.05;;;12.10;99.90;;;;;;4863378;29;20443;-90
2023/05/06 03:33:35;;;;;;;9.20;5.22;;;12.10;99.90;;;;;;4861511;29;20045;-90
2023/05/06 03:36:03;;;;;;;8.05;5.20;;;12.10;99.90;;;;;;4865138;29;20390;-90
2023/05/06 03:38:29;;;;;;;7.22;5.35;;;12.00;99.90;;;;;;4861109;29;20047;-91
2023/05/06 03:40:55;;;;;;;6.85;5.15;;;12.00;99.90;;;;;;4864125;29;20136;-90
2023/05/06 03:43:20;;;;;;;6.93;5.07;;;12.00;99.90;;;;;;4860671;29;20493;-90
2023/05/06 03:45:46;;;;;;;7.80;5.10;;;12.00;99.90;;;;;;4866584;29;20102;-90
2023/05/06 03:48:11;;;;;;;9.55;5.18;;;11.90;99.90;;;;;;4879116;29;20052;-90
2023/05/06 03:50:37;;;;;;;8.10;5.32;;;11.90;99.90;;;;;;4878455;29;20124;-89
2023/05/06 03:53:03;;;;;;;8.02;4.82;;;11.90;99.90;;;;;;4879029;29;20056;-90
2023/05/06 03:55:29;;;;;;;6.93;4.53;;;11.80;99.90;;;;;;4878800;29;20057;-90
2023/05/06 03:57:55;;;;;;;8.57;4.80;;;11.80;99.90;;;;;;4861314;29;20068;-90
2023/05/06 04:00:21;;;;;;;7.22;4.90;;;11.80;99.90;;;;;;4868910;29;20490;-91
2023/05/06 04:02:47;;;;;;;6.65;5.00;;;11.80;99.90;;;;;;4862094;29;20045;-88
2023/05/06 04:05:13;;;;;;;8.20;5.22;;;11.70;99.90;;;;;;4860923;29;20106;-90
2023/05/06 04:07:38;;;;;;;7.65;4.57;;;11.70;99.90;;;;;;4878675;29;20109;-90
2023/05/06 04:10:05;;;;;;;7.82;5.03;;;11.70;99.90;;;;;;4878402;29;20447;-90
2023/05/06 04:12:30;;;;;;;7.13;4.85;;;11.60;99.90;;;;;;4865377;29;20045;-90
2023/05/06 04:14:56;;;;;;;7.35;4.95;;;11.60;99.90;;;;;;4865582;29;20073;-91
2023/05/06 04:17:22;;;;;;;9.25;5.35;;;11.60;99.90;;;;;;4873230;29;20049;-90
2023/05/06 04:19:47;;;;;;;8.73;5.45;;;11.60;99.90;;;;;;4879598;29;20418;-89
2023/05/06 04:22:13;;;;;;;7.80;4.85;;;11.60;99.90;;;;;;4899440;29;20052;-89
2023/05/06 04:24:40;;;;;;;7.30;5.00;;;11.50;99.90;;;;;;4861185;29;20080;-90
2023/05/06 04:27:06;;;;;;;7.25;4.68;;;11.50;99.90;;;;;;4904527;29;20128;-90
2023/05/06 04:29:32;;;;;;;10.23;4.78;;;11.50;99.90;;;;;;4878595;29;20128;-87
2023/05/06 04:31:57;;;;;;;7.03;4.90;;;11.50;99.90;;;;;;4873122;29;20474;-89
2023/05/06 04:34:23;;;;;;;7.05;5.28;;;11.40;99.90;;;;;;4879470;29;20487;-89
2023/05/06 04:36:49;;;;;;;7.50;4.72;;;11.40;99.90;;;;;;4872823;29;20052;-89
2023/05/06 04:39:16;;;;;;;9.10;4.95;;;11.40;99.90;;;;;;4878145;29;20053;-90
2023/05/06 04:41:43;;;;;;;7.50;5.57;;;11.40;99.90;;;;;;4892444;29;20044;-88
2023/05/06 04:44:09;;;;;;;8.52;5.45;;;11.40;99.90;;;;;;4879625;29;20048;-90
2023/05/06 04:46:35;;;;;;;8.50;5.60;;;11.30;99.90;;;;;;4865052;29;20053;-90
2023/05/06 04:49:00;;;;;;;7.38;5.35;;;11.30;99.90;;;;;;4873677;29;20109;-89
2023/05/06 04:51:26;;;;;;;8.75;5.55;;;11.40;99.90;;;;;;4861202;29;20081;-89
2023/05/06 04:53:52;;;;;;;9.23;5.25;;;11.30;99.90;;;;;;4862133;29;20058;-89
2023/05/06 04:56:17;;;;;;;10.45;5.53;;;11.30;99.90;;;;;;4860928;29;20050;-89
2023/05/06 04:58:43;;;;;;;10.07;5.53;;;11.30;99.90;;;;;;4859440;29;20230;-89
2023/05/06 05:01:10;;;;;;;8.25;5.63;;;11.30;99.90;;;;;;4860292;29;20056;-88
2023/05/06 05:03:36;;;;;;;7.43;5.40;;;11.30;99.90;;;;;;4860896;29;20050;-90
2023/05/06 05:06:01;;;;;;;9.05;5.75;;;11.30;99.90;;;;;;4860740;29;20049;-89
2023/05/06 05:08:27;;;;;;;9.65;5.68;;;11.30;99.90;;;;;;4861738;29;20041;-90
2023/05/06 05:10:53;;;;;;;8.73;5.55;;;11.30;99.90;;;;;;4877211;29;20128;-90
2023/05/06 05:13:20;;;;;;;8.30;5.90;;;11.30;99.90;;;;;;4877479;29;20097;-89
2023/05/06 05:15:46;;;;;;;10.15;5.50;;;11.30;99.90;;;;;;4878634;29;20541;-90
2023/05/06 05:18:11;;;;;;;9.85;6.00;;;11.30;99.90;;;;;;4879704;29;20101;-89
2023/05/06 05:20:37;;;;;;;11.15;6.07;;;11.30;99.90;;;;;;4873519;29;20145;-90
2023/05/06 05:23:03;;;;;;;12.32;5.97;;;11.30;99.90;;;;;;4890775;29;20394;-90
2023/05/06 05:25:28;;;;;;;9.88;6.22;;;11.30;99.90;;;;;;4860887;29;20074;-91
2023/05/06 05:27:54;;;;;;;8.65;6.15;;;11.40;99.90;;;;;;4890120;29;20098;-89
2023/05/06 05:30:20;;;;;;;9.63;5.90;;;11.40;99.90;;;;;;4892462;29;20470;-88
2023/05/06 05:32:48;;;;;;;9.68;6.22;;;11.40;99.90;;;;;;4863955;29;20512;-89
2023/05/06 05:35:15;;;;;;;13.27;6.45;;;11.40;99.90;;;;;;4863116;29;20057;-89
2023/05/06 05:37:40;;;;;;;10.95;6.28;;;11.40;99.90;;;;;;4882515;29;20663;-90
2023/05/06 05:40:06;;;;;;;9.82;6.40;;;11.40;99.90;;;;;;4881526;29;20045;-91
2023/05/06 05:42:32;;;;;;;11.85;6.20;;;11.40;99.90;;;;;;4880940;29;20044;-88
2023/05/06 05:44:59;;;;;;;12.05;6.93;;;11.40;99.90;;;;;;4882799;29;20056;-90
2023/05/06 05:47:25;;;;;;;11.55;6.40;;;11.50;99.90;;;;;;4870743;29;20053;-88
2023/05/06 05:49:50;;;;;;;10.73;6.47;;;11.40;99.90;;;;;;4862479;29;20498;-89
2023/05/06 05:52:16;;;;;;;13.35;6.82;;;11.40;99.90;;;;;;4862904;29;20101;-89
2023/05/06 05:54:42;;;;;;;11.45;6.40;;;11.50;99.90;;;;;;4862886;29;20058;-88
2023/05/06 05:57:07;;;;;;;11.73;7.60;;;11.50;99.90;;;;;;4863095;29;20482;-88
2023/05/06 05:59:33;;;;;;;11.25;6.53;;;11.50;99.90;;;;;;4863620;29;20105;-88
2023/05/06 06:01:59;;;;;;;15.95;9.25;;;11.50;99.90;;;;;;4863505;29;20084;-88
2023/05/06 06:04:25;;;;;;;14.20;9.27;;;11.60;99.90;;;;;;4861625;29;20060;-88
2023/05/06 06:06:50;;;;;;;13.52;9.80;;;11.60;99.90;;;;;;4865571;29;20128;-88
2023/05/06 06:09:16;;;;;;;13.35;6.72;;;11.60;99.90;;;;;;4863926;29;20042;-89
2023/05/06 06:11:42;;;;;;;16.38;10.85;;;11.70;99.90;;;;;;4893116;29;20060;-89
2023/05/06 06:14:08;;;;;;;13.02;8.18;;;11.80;99.90;;;;;;4863436;29;20512;-89
2023/05/06 06:16:35;;;;;;;18.02;13.43;;;11.80;99.90;;;;;;4862641;29;20132;-88
2023/05/06 06:19:04;;;;;;;20.13;14.40;;;11.80;99.90;;;;;;4863726;29;20045;-88
2023/05/06 06:21:29;;;;;;;16.77;12.98;;;11.90;99.90;;;;;;4863452;29;20439;-85
2023/05/06 06:23:55;;;;;;;19.38;15.05;;;11.90;99.90;;;;;;4876405;29;20041;-90
2023/05/06 06:26:21;;;;;;;16.20;12.50;;;12.00;99.90;;;;;;4894417;29;20102;-90
2023/05/06 06:28:47;;;;;;;21.80;14.63;;;12.10;99.90;;;;;;4896410;29;20406;-90
2023/05/06 06:31:12;;;;;;;14.32;11.55;;;12.10;99.90;;;;;;4872916;29;20084;-89
2023/05/06 06:33:38;;;;;;;18.20;14.10;;;12.20;99.90;;;;;;4863407;29;20053;-91
2023/05/06 06:36:04;;;;;;;15.90;12.25;;;12.20;99.90;;;;;;4874377;29;20051;-89
2023/05/06 06:38:40;;;;;;;17.70;12.43;;;12.30;99.90;;;;;;4865644;29;20070;-90
2023/05/06 06:41:06;;;;;;;16.67;13.15;;;12.30;99.90;;;;;;4862632;29;20132;-88
2023/05/06 06:43:32;;;;;;;15.38;11.32;;;12.30;99.90;;;;;;4860779;29;20057;-86
2023/05/06 06:45:58;;;;;;;12.15;8.57;;;12.40;99.90;;;;;;4872860;29;20053;-89
2023/05/06 06:48:23;;;;;;;13.15;7.85;;;12.40;99.90;;;;;;4866229;29;20524;-89
2023/05/06 06:50:49;;;;;;;10.45;7.57;;;12.40;99.90;;;;;;4864651;29;20072;-90
2023/05/06 06:53:15;;;;;;;15.55;12.07;;;12.40;99.90;;;;;;4873498;29;20057;-90
2023/05/06 06:55:44;;;;;;;11.13;7.63;;;12.40;99.90;;;;;;4879680;29;20045;-90
2023/05/06 06:58:10;;;;;;;9.05;6.78;;;12.50;99.90;;;;;;4870780;29;20075;-89
2023/05/06 07:00:36;;;;;;;13.13;8.82;;;12.50;99.90;;;;;;4868052;29;20101;-90
2023/05/06 07:03:01;;;;;;;9.35;7.32;;;12.50;99.90;;;;;;4873616;29;20048;-90
2023/05/06 07:05:27;;;;;;;12.93;9.88;;;12.50;99.90;;;;;;4861121;29;20487;-90
2023/05/06 07:07:54;;;;;;;10.93;7.30;;;12.60;99.90;;;;;;4870424;29;20128;-87
2023/05/06 07:10:20;;;;;;;13.95;10.55;;;12.60;99.90;;;;;;4859833;29;20042;-93
2023/05/06 07:12:45;;;;;;;12.90;9.93;;;12.60;99.90;;;;;;4861027;29;20074;-92
2023/05/06 07:15:11;;;;;;;15.65;10.60;;;12.70;99.90;;;;;;4892465;29;20443;-90
2023/05/06 07:17:37;;;;;;;10.77;7.82;;;12.70;99.90;;;;;;4862949;29;20505;-89
2023/05/06 07:20:02;;;;;;;11.95;9.13;;;12.80;99.90;;;;;;4861468;29;20078;-89
2023/05/06 07:22:28;;;;;;;12.00;9.48;;;12.80;99.90;;;;;;4862157;29;20087;-88
2023/05/06 07:24:54;;;;;;;17.17;13.10;;;12.90;99.90;;;;;;4864172;29;20049;-85
2023/05/06 07:27:19;;;;;;;14.73;10.80;;;13.00;99.90;;;;;;4876341;29;20467;-87
2023/05/06 07:29:47;;;;;;;13.23;10.32;;;13.10;99.90;;;;;;4860101;29;20050;-86
2023/05/06 07:32:16;;;;;;;12.65;9.25;;;13.30;99.90;;;;;;4860509;29;20101;-87
2023/05/06 07:34:48;;;;;;;10.38;7.55;;;13.40;99.90;;;;;;4859679;29;20475;-87
2023/05/06 07:37:19;;;;;;;10.50;7.35;;;13.50;99.90;;;;;;4861972;29;20046;-87
2023/05/06 07:39:55;;;;;;;9.93;6.97;;;13.60;99.90;;;;;;4900741;29;20088;-90
2023/05/06 07:42:21;;;;;;;11.18;9.05;;;13.70;99.90;;;;;;4871318;29;20046;-88
2023/05/06 07:44:46;;;;;;;10.45;6.88;;;13.80;99.90;;;;;;4874793;29;20101;-89
2023/05/06 07:47:24;;;;;;;10.45;6.10;;;13.80;99.90;;;;;;4865252;29;20052;-90
2023/05/06 07:49:50;;;;;;;8.20;5.25;;;13.90;99.90;;;;;;4867057;29;20056;-91
2023/05/06 07:52:15;;;;;;;7.93;5.40;;;14.00;99.90;;;;;;4863421;29;20057;-88
2023/05/06 07:54:41;;;;;;;8.18;5.80;;;14.00;99.90;;;;;;4865491;29;20080;-90
2023/05/06 07:57:06;;;;;;;9.32;6.45;;;14.10;99.90;;;;;;4871345;29;20482;-91
2023/05/06 07:59:35;;;;;;;9.05;6.88;;;14.20;99.90;;;;;;4866016;29;20045;-91
2023/05/06 08:02:01;;;;;;;10.38;6.60;;;14.30;99.90;;;;;;4861643;29;20041;-89
2023/05/06 08:04:27;;;;;;;10.38;7.80;;;14.30;99.90;;;;;;4872344;29;20049;-90
2023/05/06 08:06:52;;;;;;;9.20;6.80;;;14.40;99.90;;;;;;4872948;29;20128;-91
2023/05/06 08:09:18;;;;;;;11.30;7.57;;;14.50;99.90;;;;;;4871744;29;20041;-91
2023/05/06 08:11:46;;;;;;;13.00;7.60;;;14.50;99.90;;;;;;4872227;29;20056;-93
2023/05/06 08:14:12;;;;;;;10.20;6.80;;;14.60;99.90;;;;;;4867794;29;20125;-91
2023/05/06 08:16:37;;;;;;;11.90;7.45;;;14.70;99.90;;;;;;4860426;29;20551;-92
2023/05/06 08:19:03;;;;;;;10.35;7.10;;;14.70;99.90;;;;;;4870711;29;20049;-90
2023/05/06 08:21:28;;;;;;;10.25;7.10;;;14.80;99.90;;;;;;4880450;29;20040;-91
2023/05/06 08:23:54;;;;;;;11.07;7.22;;;15.00;99.90;;;;;;4874255;29;20045;-93
2023/05/06 08:26:20;;;;;;;8.52;6.28;;;15.00;99.90;;;;;;4867817;29;20041;-91
2023/05/06 08:28:45;;;;;;;9.32;6.50;;;15.10;99.90;;;;;;4867080;29;20473;-94
2023/05/06 08:31:14;;;;;;;8.93;6.22;;;15.20;99.90;;;;;;4880604;29;20084;-94
2023/05/06 08:33:42;;;;;;;9.63;6.28;;;15.30;99.90;;;;;;4873447;29;20064;-93
2023/05/06 08:36:14;;;;;;;7.45;5.57;;;15.40;99.90;;;;;;4860702;29;20473;-94
2023/05/06 08:38:49;;;;;;;8.77;5.63;;;15.50;99.90;;;;;;4860725;29;20080;-93
2023/05/06 08:41:33;;;;;;;10.70;6.38;;;15.50;99.90;;;;;;4860897;29;20390;-89
2023/05/06 08:44:00;;;;;;;;;;;15.70;99.90;;;;;;4857304;29;20045;-89
2023/05/06 08:46:35;;;;;;;9.55;6.00;;;15.70;99.90;;;;;;4878027;29;19923;-88
2023/05/06 08:49:30;;;;;;;9.15;5.63;;;15.80;99.90;;;;;;4851353;29;20057;-88
2023/05/06 08:52:05;;;;;;;8.45;6.20;;;15.90;99.90;;;;;;4869668;29;20053;-90
2023/05/06 08:54:35;;;;;;;7.63;5.32;;;16.00;99.90;;;;;;4894178;29;20053;-91
2023/05/06 08:57:04;;;;;;;10.10;6.25;;;16.10;99.90;;;;;;4860916;29;20041;-88
2023/05/06 09:00:03;;;;;;;9.38;6.25;;;16.20;99.90;;;;;;4899948;29;20089;-92
2023/05/06 09:02:32;;;;;;;13.13;6.82;;;16.30;99.70;;;;;;4874796;29;20056;-90
2023/05/06 09:05:03;;;;;;;9.25;6.40;;;16.40;99.70;;;;;;4877818;29;20057;-88
2023/05/06 09:07:32;;;;;;;12.80;7.35;;;16.40;99.40;;;;;;4859038;29;20049;-89
2023/05/06 09:10:28;;;;;;;10.35;6.50;;;16.50;99.50;;;;;;4863661;29;20098;-88
2023/05/06 09:13:00;;;;;;;11.85;6.75;;;16.60;99.10;;;;;;4880064;29;20052;-89
2023/05/06 09:15:42;;;;;;;7.72;4.72;;;16.70;99.30;;;;;;4879436;29;20053;-85
2023/05/06 09:18:11;;;;;;;10.90;6.15;;;16.80;98.80;;;;;;4880858;29;20045;-91
2023/05/06 09:20:47;;;;;;;11.15;5.57;;;16.90;98.80;;;;;;4878632;29;20045;-92
2023/05/06 09:23:25;;;;;;;10.30;6.50;;;16.90;98.90;;;;;;4878286;29;20533;-92
2023/05/06 09:25:58;;;;;;;12.05;7.22;;;17.00;99.00;;;;;;4884817;23;20089;-91
2023/05/06 09:28:31;;;;;;;11.35;6.63;;;17.10;99.00;;;;;;4860968;29;20064;-90
2023/05/06 09:30:57;;;;;;;11.60;6.75;;;17.20;99.00;;;;;;4849442;29;20057;-90
2023/05/06 09:33:23;;;;;;;11.50;6.43;;;17.40;98.10;;;;;;4877212;29;20443;-90
2023/05/06 09:36:00;;;;;;;11.10;6.43;;;17.40;97.80;;;;;;4868417;29;20052;-91
2023/05/06 09:38:26;;;;;;;10.00;6.32;;;17.50;97.10;;;;;;4859783;29;20054;-88
2023/05/06 09:40:54;;;;;;;9.93;5.68;;;17.60;96.70;;;;;;4870476;29;20522;-91
2023/05/06 09:43:33;;;;;;;;;;;;;;;;;;;;;
2023/05/06 09:46:11;;;;;;;12.02;5.63;;;17.60;95.80;;;;;;4810239;29;20538;-93
2023/05/06 09:48:56;;;;;;;11.15;6.15;;;17.70;96.20;;;;;;4848029;29;20059;-93
2023/05/06 09:51:22;;;;;;;12.52;7.40;;;17.80;96.00;;;;;;4848221;29;20487;-92
2023/05/06 09:53:56;;;;;;;11.77;7.78;;;17.80;95.80;;;;;;4854306;29;20136;-91
2023/05/06 09:59:45;;;;;;;12.48;7.50;;;17.90;96.30;;;;;;4842954;29;20062;-92
2023/05/06 10:02:17;;;;;;;11.07;6.30;;;18.00;95.80;;;;;;4824672;29;20054;-92
2023/05/06 10:04:44;;;;;;;10.65;6.88;;;18.10;94.80;;;;;;4820072;29;20069;-88
2023/05/06 10:07:14;;;;;;;10.27;7.38;;;18.10;95.40;;;;;;4839644;29;20440;-91
2023/05/06 10:09:52;;;;;;;10.77;7.10;;;18.20;95.90;;;;;;4858462;29;20045;-91
2023/05/06 10:12:31;;;;;;;11.15;7.43;;;18.20;95.80;;;;;;4871141;29;20478;-91
2023/05/06 10:15:01;;;;;;;11.73;7.70;;;18.30;95.90;;;;;;4846619;29;20471;-91
2023/05/06 10:17:29;;;;;;;10.93;7.78;;;18.30;96.20;;;;;;4855018;29;20045;-91
2023/05/06 10:19:59;;;;;;;11.63;8.30;;;18.30;95.50;;;;;;4881712;29;20041;-91
2023/05/06 10:22:59;;;;;;;12.30;8.35;;;18.40;95.60;;;;;;4871231;29;20037;-92
2023/05/06 10:25:27;;;;;;;12.52;7.63;;;18.50;94.80;;;;;;4862975;29;20076;-93
2023/05/06 10:27:53;;;;;;;13.07;7.53;;;18.60;95.50;;;;;;4872639;29;20136;-91
2023/05/06 10:30:19;;;;;;;13.70;8.40;;;18.60;95.00;;;;;;4880062;29;20092;-92
2023/05/06 10:32:45;;;;;;;12.77;8.45;;;18.70;95.30;;;;;;4863549;29;20045;-92
2023/05/06 10:35:19;;;;;;;13.00;8.05;;;18.70;94.80;;;;;;4851842;29;20056;-92
2023/05/06 10:37:47;;;;;;;12.80;7.93;;;18.80;95.20;;;;;;4846947;29;20049;-92
2023/05/06 10:40:14;;;;;;;13.27;9.73;;;18.90;95.80;;;;;;4864767;29;20057;-92
2023/05/06 10:42:39;;;;;;;14.57;9.70;;;18.90;94.90;;;;;;4846340;29;20046;-92
2023/05/06 10:45:07;;;;;;;13.10;9.00;;;18.90;95.10;;;;;;4855623;29;20060;-91
2023/05/06 10:47:51;;;;;;;14.52;9.70;;;19.00;95.40;;;;;;4845889;29;20114;-93
2023/05/06 10:50:20;;;;;;;12.70;9.10;;;19.00;95.00;;;;;;4858267;29;20135;-93
2023/05/06 10:52:46;;;;;;;13.57;10.75;;;19.10;95.70;;;;;;4865090;29;20045;-93
2023/05/06 10:55:32;;;;;;;15.32;10.27;;;19.20;95.10;;;;;;4878583;29;20046;-93
2023/05/06 10:58:00;;;;;;;14.75;10.52;;;19.10;94.80;;;;;;4880393;29;20041;-92
2023/05/06 11:00:30;;;;;;;12.32;10.30;;;19.20;94.60;;;;;;4855638;29;20049;-93
2023/05/06 11:02:59;;;;;;;14.88;10.18;;;19.20;94.40;;;;;;4862953;29;20545;-93
2023/05/06 11:05:26;;;;;;;14.57;9.18;;;19.20;94.20;;;;;;4847526;29;20056;-93
2023/05/06 11:07:52;;;;;;;14.43;10.35;;;19.30;93.90;;;;;;4863082;29;20117;-93
2023/05/06 11:10:33;;;;;;;13.63;9.80;;;19.20;95.00;;;;;;4864063;29;20050;-93
2023/05/06 11:13:22;;;;;;;14.15;10.90;;;19.30;95.60;;;;;;4845621;29;20097;-92
2023/05/06 11:15:50;;;;;;;13.40;9.75;;;19.30;94.70;;;;;;4870229;29;20050;-92
2023/05/06 11:18:29;;;;;;;12.80;9.52;;;19.30;96.00;;;;;;4846578;29;20109;-93
2023/05/06 11:21:01;;;;;;;14.48;10.75;;;19.30;96.40;;;;;;4845700;29;20442;-92
2023/05/06 11:23:53;;;;;;;11.05;9.15;;;19.40;96.00;;;;;;4863029;29;20046;-92
2023/05/06 11:26:20;;;;;;;13.80;10.00;;;19.50;96.60;;;;;;4861403;29;20053;-92
2023/05/06 11:28:48;;;;;;;15.50;10.80;;;19.40;96.30;;;;;;4847241;29;20053;-92
2023/05/06 11:31:14;;;;;;;16.45;10.10;;;19.50;95.80;;;;;;4878872;29;20052;-92
2023/05/06 11:33:48;;;;;;;12.18;9.32;;;19.60;95.30;;;;;;4857170;29;20049;-92
2023/05/06 11:36:15;;;;;;;13.85;9.63;;;19.60;95.90;;;;;;4859621;29;20053;-92
2023/05/06 11:38:44;;;;;;;13.30;9.70;;;19.60;95.10;;;;;;4859977;29;20069;-92
2023/05/06 11:41:12;;;;;;;13.40;9.73;;;19.60;96.00;;;;;;4865855;29;20045;-92
2023/05/06 11:43:38;;;;;;;13.90;9.73;;;19.60;95.90;;;;;;4862320;29;20487;-92
2023/05/06 11:46:04;;;;;;;12.63;9.63;;;19.60;94.40;;;;;;4849322;29;20056;-92
2023/05/06 11:48:42;;;;;;;12.93;9.05;;;19.70;95.10;;;;;;4864452;29;20044;-91
2023/05/06 11:51:23;;;;;;;12.95;8.95;;;19.70;94.80;;;;;;4856399;29;20052;-93
2023/05/06 11:53:50;;;;;;;12.55;8.65;;;19.70;94.50;;;;;;4878943;29;20045;-91
2023/05/06 11:56:16;;;;;;;11.73;9.15;;;19.70;94.40;;;;;;4860466;29;20048;-92
2023/05/06 11:58:45;;;;;;;11.85;7.88;;;19.80;94.20;;;;;;4863821;29;20105;-92
2023/05/06 12:01:10;;;;;;;10.68;7.60;;;19.80;94.20;;;;;;4860813;29;20466;-92
2023/05/06 12:03:36;;;;;;;11.05;7.72;;;19.80;93.90;;;;;;4847988;29;20045;-93
2023/05/06 12:06:03;;;;;;;13.63;8.55;;;19.90;93.20;;;;;;4856354;29;20052;-94
2023/05/06 12:08:32;;;;;;;11.90;8.50;;;19.90;92.30;;;;;;4847032;29;20406;-92
2023/05/06 12:11:16;;;;;;;10.88;8.18;;;20.00;92.10;;;;;;4873835;29;20081;-93
2023/05/06 12:13:57;;;;;;;13.23;8.32;;;20.00;92.00;;;;;;4846109;29;20494;-93
2023/05/06 12:16:30;;;;;;;12.82;8.80;;;20.00;91.50;;;;;;4853909;29;20057;-92
2023/05/06 12:19:10;;;;;;;11.68;8.43;;;20.10;92.20;;;;;;4861706;29;20049;-92
2023/05/06 12:21:41;;;;;;;11.60;9.00;;;20.10;92.50;;;;;;4851373;29;20045;-92
2023/05/06 12:24:06;;;;;;;13.57;9.30;;;20.10;91.80;;;;;;4865260;29;20076;-91
2023/05/06 12:26:48;;;;;;;14.40;10.07;;;20.10;92.80;;;;;;4870156;29;20417;-91
2023/05/06 12:29:16;;;;;;;13.80;8.95;;;20.20;92.50;;;;;;4843700;29;20061;-91
2023/05/06 12:31:46;;;;;;;13.15;8.85;;;20.20;91.80;;;;;;4863084;29;20049;-90
2023/05/06 12:34:13;;;;;;;11.75;9.15;;;20.20;92.00;;;;;;4860697;29;20101;-91
2023/05/06 12:36:44;;;;;;;12.93;8.75;;;20.20;93.10;;;;;;4860129;29;20053;-92
2023/05/06 12:39:10;;;;;;;12.48;9.00;;;20.30;93.10;;;;;;4850255;29;20607;-92
2023/05/06 12:41:44;;;;;;;12.07;9.10;;;20.30;94.20;;;;;;4844138;29;20082;-91
2023/05/06 12:44:38;;;;;;;10.27;8.48;;;20.30;94.90;;;;;;4850825;29;20107;-91
2023/05/06 12:47:33;;;;;;;11.60;8.43;;;20.40;95.60;;;;;;4861104;29;20081;-93
2023/05/06 12:49:59;;;;;;;10.77;7.13;;;20.40;95.10;;;;;;4863855;29;20479;-92
2023/05/06 12:52:30;;;;;;;11.43;7.88;;;20.40;94.00;;;;;;4845022;29;20037;-91
2023/05/06 12:55:04;;;;;;;11.32;8.70;;;20.40;95.30;;;;;;4844848;29;20574;-89